Time,TemperatureF,DewpointF,PressureIn,WindDirection,WindDirectionDegrees,WindSpeedMPH,WindSpeedGustMPH,Humidity,HourlyPrecipIn,Conditions,Clouds,dailyrainin,SoftwareType,DateUTC
2013-06-23 00:10:00,63.3,51.1,29.97,NE,34,0.0,0.0,66,0.00,,,0.00,WMR918D-Custom,2013-06-23 07:10:00,
2013-06-23 00:20:00,63.1,50.9,29.97,WSW,257,0.0,0.0,66,0.00,,,0.00,WMR918D-Custom,2013-06-23 07:20:00,
2013-06-23 00:30:00,63.0,51.1,29.97,WSW,256,0.0,0.0,67,0.00,,,0.00,WMR918D-Custom,2013-06-23 07:30:00,
2013-06-23 00:40:00,62.8,50.9,29.97,WSW,253,0.0,0.0,67,0.00,,,0.00,WMR918D-Custom,2013-06-23 07:40:00,
2013-06-23 00:50:00,62.6,51.1,29.97,WNW,289,0.0,0.0,68,0.00,,,0.00,WMR918D-Custom,2013-06-23 07:50:00,
2013-06-23 01:00:00,62.6,51.1,29.97,NNE,31,0.0,0.0,68,0.00,,,0.00,WMR918D-Custom,2013-06-23 08:00:00,
2013-06-23 01:10:00,62.4,51.3,29.97,NE,35,0.0,0.0,69,0.00,,,0.00,WMR918D-Custom,2013-06-23 08:10:00,
2013-06-23 01:20:00,62.2,51.4,29.97,North,8,0.0,0.0,70,0.00,,,0.00,WMR918D-Custom,2013-06-23 08:20:00,
2013-06-23 01:30:00,62.2,51.4,29.97,ESE,115,0.0,0.0,70,0.00,,,0.00,WMR918D-Custom,2013-06-23 08:30:00,
2013-06-23 01:40:00,62.1,51.6,29.97,NE,39,0.0,0.0,71,0.00,,,0.00,WMR918D-Custom,2013-06-23 08:40:00,
2013-06-23 01:50:00,61.9,51.4,29.97,NE,39,0.0,0.0,71,0.00,,,0.00,WMR918D-Custom,2013-06-23 08:50:00,
2013-06-23 02:00:00,61.7,51.3,29.97,NE,40,0.0,0.0,71,0.00,,,0.00,WMR918D-Custom,2013-06-23 09:00:00,
2013-06-23 02:10:00,61.7,51.3,29.97,East,96,0.0,0.0,71,0.00,,,0.00,WMR918D-Custom,2013-06-23 09:10:00,
2013-06-23 02:20:00,61.3,51.3,29.97,NE,46,0.0,0.0,72,0.00,,,0.00,WMR918D-Custom,2013-06-23 09:20:00,
2013-06-23 02:30:00,61.2,51.4,29.97,ENE,57,0.0,0.0,73,0.00,,,0.00,WMR918D-Custom,2013-06-23 09:30:00,
2013-06-23 02:40:00,61.2,51.4,29.97,NE,56,0.0,0.0,73,0.00,,,0.00,WMR918D-Custom,2013-06-23 09:40:00,
2013-06-23 02:50:00,61.0,51.3,29.97,ESE,111,0.0,0.0,73,0.00,,,0.00,WMR918D-Custom,2013-06-23 09:50:00,
2013-06-23 03:00:00,60.8,51.1,29.97,ESE,111,0.0,0.0,73,0.00,,,0.00,WMR918D-Custom,2013-06-23 10:00:00,
2013-06-23 03:10:00,60.8,51.4,29.97,SE,138,0.0,0.0,74,0.00,,,0.00,WMR918D-Custom,2013-06-23 10:10:00,
2013-06-23 03:20:00,60.8,51.4,29.97,SSE,161,0.0,0.0,74,0.00,,,0.00,WMR918D-Custom,2013-06-23 10:20:00,
2013-06-23 03:30:00,60.6,51.6,29.97,SSW,205,0.0,0.0,75,0.00,,,0.00,WMR918D-Custom,2013-06-23 10:30:00,
2013-06-23 03:40:00,60.6,52.0,29.97,SSW,206,0.0,0.0,76,0.00,,,0.00,WMR918D-Custom,2013-06-23 10:40:00,
2013-06-23 03:50:00,60.4,51.8,29.97,SSW,205,0.0,0.0,76,0.00,,,0.00,WMR918D-Custom,2013-06-23 10:50:00,
2013-06-23 04:00:00,60.4,52.2,29.97,SSW,205,0.0,0.0,77,0.00,,,0.00,WMR918D-Custom,2013-06-23 11:00:00,
2013-06-23 04:10:00,60.4,52.2,29.97,NNW,329,0.0,0.0,77,0.00,,,0.00,WMR918D-Custom,2013-06-23 11:10:00,
2013-06-23 04:20:00,60.6,52.7,29.97,NNE,30,0.0,0.0,78,0.00,,,0.00,WMR918D-Custom,2013-06-23 11:20:00,
2013-06-23 04:30:00,60.8,52.5,29.97,West,265,0.0,0.0,77,0.00,,,0.00,WMR918D-Custom,2013-06-23 11:30:00,
2013-06-23 04:40:00,60.8,52.9,29.97,West,263,0.0,0.0,78,0.00,,,0.00,WMR918D-Custom,2013-06-23 11:40:00,
2013-06-23 04:50:00,60.8,52.5,29.97,West,269,0.0,0.0,77,0.00,,,0.00,WMR918D-Custom,2013-06-23 11:50:00,
2013-06-23 05:00:00,60.8,52.5,29.97,NNW,328,0.0,2.7,77,0.00,,,0.00,WMR918D-Custom,2013-06-23 12:00:00,
2013-06-23 05:10:00,61.0,52.7,29.97,West,260,0.0,4.0,77,0.00,,,0.00,WMR918D-Custom,2013-06-23 12:10:00,
2013-06-23 05:20:00,61.0,52.7,29.97,SW,228,0.0,0.0,77,0.00,,,0.00,WMR918D-Custom,2013-06-23 12:20:00,
2013-06-23 05:30:00,61.0,52.7,29.97,NNW,329,3.6,3.6,77,0.00,,,0.00,WMR918D-Custom,2013-06-23 12:30:00,
2013-06-23 05:40:00,61.0,52.7,29.97,WNW,302,0.0,0.0,77,0.00,,,0.00,WMR918D-Custom,2013-06-23 12:40:00,
2013-06-23 05:50:00,61.2,52.9,29.97,West,267,0.0,0.0,77,0.00,,,0.00,WMR918D-Custom,2013-06-23 12:50:00,
2013-06-23 06:00:00,61.2,53.2,29.97,West,278,0.0,0.0,78,0.00,,,0.00,WMR918D-Custom,2013-06-23 13:00:00,
2013-06-23 06:10:00,61.2,52.9,29.97,East,97,0.0,0.0,77,0.00,,,0.00,WMR918D-Custom,2013-06-23 13:10:00,
2013-06-23 06:20:00,61.2,53.2,29.97,South,181,0.0,0.0,78,0.00,,,0.00,WMR918D-Custom,2013-06-23 13:20:00,
2013-06-23 06:30:00,61.5,54.0,29.97,West,259,2.2,2.2,79,0.00,,,0.00,WMR918D-Custom,2013-06-23 13:30:00,
2013-06-23 06:40:00,61.7,54.1,29.97,West,269,3.1,3.1,79,0.00,,,0.00,WMR918D-Custom,2013-06-23 13:40:00,
2013-06-23 06:50:00,61.7,54.1,29.97,WNW,286,0.0,0.0,79,0.00,,,0.00,WMR918D-Custom,2013-06-23 13:50:00,
2013-06-23 07:00:00,61.9,54.7,29.97,SW,234,0.0,0.0,80,0.00,,,0.00,WMR918D-Custom,2013-06-23 14:00:00,
2013-06-23 07:10:00,62.2,55.0,29.97,WNW,303,3.1,3.1,80,0.00,,,0.00,WMR918D-Custom,2013-06-23 14:10:00,
2013-06-23 07:20:00,62.4,55.2,29.97,NW,320,3.1,3.6,80,0.00,,,0.00,WMR918D-Custom,2013-06-23 14:20:00,
2013-06-23 07:30:00,62.6,55.0,29.97,NW,308,0.0,0.0,79,0.00,,,0.00,WMR918D-Custom,2013-06-23 14:30:00,
2013-06-23 07:40:00,63.0,55.4,29.97,West,272,0.0,0.0,79,0.00,,,0.00,WMR918D-Custom,2013-06-23 14:40:00,
2013-06-23 07:50:00,63.0,55.4,29.97,ESE,109,0.0,0.0,79,0.00,,,0.00,WMR918D-Custom,2013-06-23 14:50:00,
2013-06-23 08:00:00,63.1,55.2,29.97,NE,35,0.0,0.0,78,0.00,,,0.00,WMR918D-Custom,2013-06-23 15:00:00,
2013-06-23 08:10:00,63.7,55.8,29.97,East,93,0.0,0.0,78,0.00,,,0.00,WMR918D-Custom,2013-06-23 15:10:00,
2013-06-23 08:20:00,64.0,55.8,29.97,ESE,114,0.0,0.0,77,0.00,,,0.00,WMR918D-Custom,2013-06-23 15:20:00,
2013-06-23 08:30:00,65.1,56.1,29.97,ESE,105,3.1,3.1,75,0.00,,,0.00,WMR918D-Custom,2013-06-23 15:30:00,
2013-06-23 08:40:00,65.3,55.6,29.97,SE,126,0.0,4.9,73,0.00,,,0.00,WMR918D-Custom,2013-06-23 15:40:00,
2013-06-23 08:50:00,65.7,55.9,29.97,NE,34,0.0,0.0,73,0.00,,,0.00,WMR918D-Custom,2013-06-23 15:50:00,
2013-06-23 09:00:00,65.8,55.8,29.97,NNE,18,0.0,0.0,72,0.00,,,0.00,WMR918D-Custom,2013-06-23 16:00:00,
2013-06-23 09:10:00,66.0,55.9,29.97,NNE,33,0.0,0.0,72,0.00,,,0.00,WMR918D-Custom,2013-06-23 16:10:00,
2013-06-23 09:20:00,66.2,55.8,29.97,NNE,25,0.0,0.0,71,0.00,,,0.00,WMR918D-Custom,2013-06-23 16:20:00,
2013-06-23 09:30:00,66.6,56.1,29.97,NE,54,0.0,0.0,71,0.00,,,0.00,WMR918D-Custom,2013-06-23 16:30:00,
2013-06-23 09:40:00,66.7,55.9,29.97,NW,315,0.0,0.0,70,0.00,,,0.00,WMR918D-Custom,2013-06-23 16:40:00,
2013-06-23 09:50:00,67.1,56.7,29.97,East,100,0.0,0.0,71,0.00,,,0.00,WMR918D-Custom,2013-06-23 16:50:00,
2013-06-23 10:00:00,68.0,57.2,29.97,NW,305,0.0,0.0,70,0.00,,,0.00,WMR918D-Custom,2013-06-23 17:00:00,
2013-06-23 10:10:00,68.7,57.6,29.97,SW,235,2.2,2.7,69,0.00,,,0.00,WMR918D-Custom,2013-06-23 17:10:00,
2013-06-23 10:20:00,69.4,57.9,29.97,North,357,2.2,3.6,68,0.00,,,0.00,WMR918D-Custom,2013-06-23 17:20:00,
2013-06-23 10:30:00,69.8,57.6,29.97,WNW,294,4.0,4.9,66,0.00,,,0.00,WMR918D-Custom,2013-06-23 17:30:00,
2013-06-23 10:40:00,70.9,58.6,29.97,NW,320,3.6,5.4,66,0.00,,,0.00,WMR918D-Custom,2013-06-23 17:40:00,
2013-06-23 10:50:00,72.0,59.0,29.97,WSW,246,0.0,0.0,64,0.00,,,0.00,WMR918D-Custom,2013-06-23 17:50:00,
2013-06-23 11:00:00,72.5,58.8,29.97,NW,307,0.0,0.0,62,0.00,,,0.00,WMR918D-Custom,2013-06-23 18:00:00,
2013-06-23 11:10:00,73.2,59.2,29.97,WNW,284,4.0,4.0,61,0.00,,,0.00,WMR918D-Custom,2013-06-23 18:10:00,
2013-06-23 11:20:00,73.2,58.8,29.97,NW,316,4.5,4.5,60,0.00,,,0.00,WMR918D-Custom,2013-06-23 18:20:00,
2013-06-23 11:30:00,73.4,58.6,29.97,West,269,0.0,2.7,59,0.00,,,0.00,WMR918D-Custom,2013-06-23 18:30:00,
2013-06-23 11:40:00,73.8,59.4,29.97,West,272,3.6,6.3,60,0.00,,,0.00,WMR918D-Custom,2013-06-23 18:40:00,
2013-06-23 11:50:00,74.3,59.5,29.97,West,261,3.1,5.4,59,0.00,,,0.00,WMR918D-Custom,2013-06-23 18:50:00,
2013-06-23 12:00:00,74.5,59.4,29.97,WSW,255,3.6,5.4,58,0.00,,,0.00,WMR918D-Custom,2013-06-23 19:00:00,
2013-06-23 12:10:00,74.7,59.9,29.97,NNW,332,4.5,5.8,59,0.00,,,0.00,WMR918D-Custom,2013-06-23 19:10:00,
2013-06-23 12:20:00,74.5,59.4,29.97,NNW,333,3.6,4.9,58,0.00,,,0.00,WMR918D-Custom,2013-06-23 19:20:00,
2013-06-23 12:30:00,74.1,58.6,29.97,West,274,5.4,5.8,57,0.00,,,0.00,WMR918D-Custom,2013-06-23 19:30:00,
2013-06-23 12:40:00,73.2,58.5,29.97,SW,226,2.7,2.7,59,0.00,,,0.00,WMR918D-Custom,2013-06-23 19:40:00,
2013-06-23 12:50:00,72.5,58.1,29.97,SSE,153,0.0,0.0,60,0.00,,,0.00,WMR918D-Custom,2013-06-23 19:50:00,
2013-06-23 13:00:00,72.5,58.8,29.97,WSW,257,3.6,3.6,62,0.00,,,0.00,WMR918D-Custom,2013-06-23 20:00:00,
2013-06-23 13:10:00,72.9,59.5,29.97,East,81,3.1,3.1,63,0.00,,,0.00,WMR918D-Custom,2013-06-23 20:10:00,
2013-06-23 13:20:00,73.4,59.7,29.97,SE,134,0.0,0.0,62,0.00,,,0.00,WMR918D-Custom,2013-06-23 20:20:00,
2013-06-23 13:30:00,73.8,59.7,29.97,WNW,303,0.0,0.0,61,0.00,,,0.00,WMR918D-Custom,2013-06-23 20:30:00,
2013-06-23 13:40:00,74.3,59.9,29.94,NNW,338,3.1,3.1,60,0.00,,,0.00,WMR918D-Custom,2013-06-23 20:40:00,
2013-06-23 13:50:00,74.8,60.1,29.94,South,180,3.1,3.1,59,0.00,,,0.00,WMR918D-Custom,2013-06-23 20:50:00,
2013-06-23 14:00:00,75.0,60.6,29.94,South,180,0.0,0.0,60,0.00,,,0.00,WMR918D-Custom,2013-06-23 21:00:00,
2013-06-23 14:10:00,74.8,60.1,29.94,SE,125,0.0,0.0,59,0.00,,,0.00,WMR918D-Custom,2013-06-23 21:10:00,
2013-06-23 14:20:00,74.5,59.7,29.94,South,179,3.6,3.6,59,0.00,,,0.00,WMR918D-Custom,2013-06-23 21:20:00,
2013-06-23 14:30:00,74.7,60.6,29.94,NE,49,0.0,0.0,61,0.00,,,0.00,WMR918D-Custom,2013-06-23 21:30:00,
2013-06-23 14:40:00,75.0,61.0,29.94,SSW,213,0.0,4.0,61,0.00,,,0.00,WMR918D-Custom,2013-06-23 21:40:00,
2013-06-23 14:50:00,75.2,60.4,29.94,SSE,154,0.0,0.0,59,0.00,,,0.00,WMR918D-Custom,2013-06-23 21:50:00,
2013-06-23 15:00:00,75.2,60.8,29.94,SW,218,0.0,0.0,60,0.00,,,0.00,WMR918D-Custom,2013-06-23 22:00:00,
2013-06-23 15:10:00,75.0,60.6,29.94,East,101,0.0,0.0,60,0.00,,,0.00,WMR918D-Custom,2013-06-23 22:10:00,
2013-06-23 15:20:00,75.2,60.8,29.94,South,185,0.0,7.6,60,0.00,,,0.00,WMR918D-Custom,2013-06-23 22:20:00,
2013-06-23 15:30:00,75.0,60.6,29.94,SSW,197,3.1,3.1,60,0.00,,,0.00,WMR918D-Custom,2013-06-23 22:30:00,
2013-06-23 15:40:00,74.8,60.4,29.94,SE,140,2.2,2.7,60,0.00,,,0.00,WMR918D-Custom,2013-06-23 22:40:00,
2013-06-23 15:50:00,74.3,59.9,29.94,South,175,2.7,8.1,60,0.00,,,0.00,WMR918D-Custom,2013-06-23 22:50:00,
2013-06-23 16:00:00,74.3,60.3,29.94,WSW,240,2.7,4.9,61,0.00,,,0.00,WMR918D-Custom,2013-06-23 23:00:00,
2013-06-23 16:10:00,74.3,60.3,29.94,NW,314,0.0,0.0,61,0.00,,,0.00,WMR918D-Custom,2013-06-23 23:10:00,
2013-06-23 16:20:00,74.5,60.4,29.94,South,189,0.0,0.0,61,0.00,,,0.00,WMR918D-Custom,2013-06-23 23:20:00,
2013-06-23 16:30:00,73.9,59.9,29.94,South,189,2.2,3.6,61,0.00,,,0.00,WMR918D-Custom,2013-06-23 23:30:00,
2013-06-23 16:40:00,73.8,60.1,29.94,SSW,195,0.0,2.7,62,0.00,,,0.00,WMR918D-Custom,2013-06-23 23:40:00,
2013-06-23 16:50:00,73.6,59.9,29.94,SSW,211,3.1,3.6,62,0.00,,,0.00,WMR918D-Custom,2013-06-23 23:50:00,
2013-06-23 17:00:00,73.8,60.1,29.91,SSE,161,2.7,3.6,62,0.00,,,0.00,WMR918D-Custom,2013-06-24 00:00:00,
2013-06-23 17:10:00,73.8,60.4,29.91,SSE,155,0.0,0.0,63,0.00,,,0.00,WMR918D-Custom,2013-06-24 00:10:00,
2013-06-23 17:20:00,73.2,60.3,29.91,SSW,193,0.0,0.0,64,0.00,,,0.00,WMR918D-Custom,2013-06-24 00:20:00,
2013-06-23 17:30:00,72.5,59.5,29.91,NE,52,0.0,0.0,64,0.00,,,0.00,WMR918D-Custom,2013-06-24 00:30:00,
2013-06-23 17:40:00,72.0,59.7,29.91,SSE,155,0.0,0.0,66,0.00,,,0.00,WMR918D-Custom,2013-06-24 00:40:00,
2013-06-23 17:50:00,72.0,59.7,29.91,SSW,197,0.0,0.0,66,0.00,,,0.00,WMR918D-Custom,2013-06-24 00:50:00,
2013-06-23 18:00:00,72.0,59.7,29.91,ESE,107,0.0,0.0,66,0.00,,,0.00,WMR918D-Custom,2013-06-24 01:00:00,
2013-06-23 18:10:00,72.0,59.7,29.91,ESE,103,0.0,0.0,66,0.00,,,0.00,WMR918D-Custom,2013-06-24 01:10:00,
2013-06-23 18:20:00,72.0,59.4,29.91,WSW,238,0.0,0.0,65,0.00,,,0.00,WMR918D-Custom,2013-06-24 01:20:00,
2013-06-23 18:30:00,72.1,59.5,29.91,WNW,299,0.0,0.0,65,0.00,,,0.00,WMR918D-Custom,2013-06-24 01:30:00,
2013-06-23 18:40:00,72.3,59.4,29.91,South,181,0.0,0.0,64,0.00,,,0.00,WMR918D-Custom,2013-06-24 01:40:00,
2013-06-23 18:50:00,72.5,59.5,29.91,West,271,0.0,0.0,64,0.00,,,0.00,WMR918D-Custom,2013-06-24 01:50:00,
2013-06-23 19:00:00,72.1,59.2,29.91,ESE,121,0.0,0.0,64,0.00,,,0.00,WMR918D-Custom,2013-06-24 02:00:00,
2013-06-23 19:10:00,72.1,59.5,29.91,SW,217,0.0,0.0,65,0.00,,,0.00,WMR918D-Custom,2013-06-24 02:10:00,
2013-06-23 19:20:00,72.3,59.4,29.91,WNW,284,0.0,0.0,64,0.00,,,0.00,WMR918D-Custom,2013-06-24 02:20:00,
2013-06-23 19:30:00,72.3,59.4,29.91,South,185,0.0,0.0,64,0.00,,,0.00,WMR918D-Custom,2013-06-24 02:30:00,
2013-06-23 19:40:00,72.1,59.2,29.91,South,171,3.6,3.6,64,0.00,,,0.00,WMR918D-Custom,2013-06-24 02:40:00,
2013-06-23 19:50:00,71.4,58.5,29.91,South,176,0.0,2.2,64,0.00,,,0.00,WMR918D-Custom,2013-06-24 02:50:00,
2013-06-23 20:00:00,70.9,58.3,29.91,East,91,0.0,0.0,65,0.00,,,0.00,WMR918D-Custom,2013-06-24 03:00:00,
2013-06-23 20:10:00,70.3,58.1,29.91,East,86,0.0,0.0,66,0.00,,,0.00,WMR918D-Custom,2013-06-24 03:10:00,
2013-06-23 20:20:00,70.0,58.1,29.91,ESE,120,0.0,0.0,67,0.00,,,0.00,WMR918D-Custom,2013-06-24 03:20:00,
2013-06-23 20:30:00,69.6,58.1,29.91,ESE,104,2.2,3.1,68,0.00,,,0.00,WMR918D-Custom,2013-06-24 03:30:00,
2013-06-23 20:40:00,68.9,57.7,29.91,East,100,2.7,3.1,69,0.00,,,0.00,WMR918D-Custom,2013-06-24 03:40:00,
2013-06-23 20:50:00,68.5,57.4,29.91,ESE,121,2.7,3.1,69,0.00,,,0.00,WMR918D-Custom,2013-06-24 03:50:00,
2013-06-23 21:00:00,68.5,57.7,29.91,NE,46,0.0,0.0,70,0.00,,,0.00,WMR918D-Custom,2013-06-24 04:00:00,
2013-06-23 21:10:00,68.5,57.7,29.91,South,187,0.0,0.0,70,0.00,,,0.00,WMR918D-Custom,2013-06-24 04:10:00,
2013-06-23 21:20:00,68.5,57.7,29.91,SSW,200,0.0,0.0,70,0.00,,,0.00,WMR918D-Custom,2013-06-24 04:20:00,
2013-06-23 21:30:00,68.4,57.6,29.91,South,188,0.0,0.0,70,0.00,,,0.00,WMR918D-Custom,2013-06-24 04:30:00,
2013-06-23 21:40:00,68.4,57.9,29.91,SSW,197,0.0,0.0,71,0.00,,,0.00,WMR918D-Custom,2013-06-24 04:40:00,
2013-06-23 21:50:00,68.4,57.9,29.91,WNW,303,0.0,0.0,71,0.00,,,0.00,WMR918D-Custom,2013-06-24 04:50:00,
2013-06-23 22:00:00,68.4,57.9,29.91,SE,133,0.0,0.0,71,0.00,,,0.00,WMR918D-Custom,2013-06-24 05:00:00,
2013-06-23 22:10:00,68.2,57.7,29.91,SE,134,0.0,0.0,71,0.00,,,0.00,WMR918D-Custom,2013-06-24 05:10:00,
2013-06-23 22:20:00,68.4,57.9,29.91,SSW,206,0.0,0.0,71,0.00,,,0.00,WMR918D-Custom,2013-06-24 05:20:00,
2013-06-23 22:30:00,68.0,57.6,29.91,SE,131,0.0,0.0,71,0.00,,,0.00,WMR918D-Custom,2013-06-24 05:30:00,
2013-06-23 22:40:00,68.0,57.9,29.91,South,182,0.0,0.0,72,0.00,,,0.00,WMR918D-Custom,2013-06-24 05:40:00,
2013-06-23 23:00:00,67.5,57.7,29.91,ESE,112,0.0,0.0,73,0.00,,,0.00,WMR918D-Custom,2013-06-24 06:00:00,
2013-06-23 23:10:00,67.1,57.7,29.91,SE,127,0.0,0.0,74,0.00,,,0.00,WMR918D-Custom,2013-06-24 06:10:00,
2013-06-23 23:20:00,66.9,57.9,29.91,East,87,0.0,0.0,75,0.00,,,0.00,WMR918D-Custom,2013-06-24 06:20:00,
2013-06-23 23:30:00,66.9,57.9,29.91,East,86,0.0,0.0,75,0.00,,,0.00,WMR918D-Custom,2013-06-24 06:30:00,
2013-06-23 23:40:00,66.9,58.3,29.91,East,87,0.0,0.0,76,0.00,,,0.00,WMR918D-Custom,2013-06-24 06:40:00,
2013-06-23 23:50:00,66.7,58.1,29.91,NE,48,0.0,0.0,76,0.00,,,0.00,WMR918D-Custom,2013-06-24 06:50:00,